createdAt,value
2023-01-01T00:00:02.078Z,5.12
2023-01-01T00:02:49.042Z,5.14
2023-01-01T00:05:38.852Z,5.18
2023-01-01T00:08:25.769Z,5.29
2023-01-01T00:11:13.149Z,5.35
2023-01-01T00:14:00.011Z,5.30
2023-01-01T00:16:47.008Z,5.32
2023-01-01T00:19:34.004Z,5.34
2023-01-01T00:22:53.358Z,5.37
2023-01-01T00:25:28.273Z,5.38
2023-01-01T00:27:55.784Z,5.38
2023-01-01T00:30:22.500Z,5.36
2023-01-01T00:32:55.500Z,5.27
2023-01-01T00:35:24.816Z,5.24
2023-01-01T00:37:51.966Z,5.27
2023-01-01T00:40:18.838Z,5.27
2023-01-01T00:42:45.583Z,5.23
2023-01-01T00:45:17.087Z,5.23
2023-01-01T00:47:47.358Z,5.26
2023-01-01T00:50:14.024Z,5.16
2023-01-01T00:52:40.621Z,5.17
2023-01-01T00:55:07.715Z,5.09
2023-01-01T00:57:35.188Z,5.11
2023-01-01T01:00:01.830Z,5.15
2023-01-01T01:02:28.553Z,5.17
2023-01-01T01:04:55.397Z,5.20
2023-01-01T01:07:22.346Z,5.16
2023-01-01T01:09:48.919Z,5.13
2023-01-01T01:12:17.976Z,5.04
2023-01-01T01:14:45.796Z,4.97
2023-01-01T01:17:12.364Z,4.78
2023-01-01T01:19:38.981Z,4.80
2023-01-01T01:22:05.580Z,4.80
2023-01-01T01:24:32.175Z,4.82
2023-01-01T01:26:58.852Z,4.88
2023-01-01T01:29:25.439Z,4.94
2023-01-01T01:31:52.005Z,5.03
2023-01-01T01:34:22.500Z,5.08
2023-01-01T01:36:53.133Z,5.09
2023-01-01T01:39:20.083Z,5.10
2023-01-01T01:41:46.685Z,5.03
2023-01-01T01:44:52.267Z,4.99
2023-01-01T01:47:50.567Z,4.98
2023-01-01T01:50:32.177Z,4.95
2023-01-01T01:53:09.399Z,5.00
2023-01-01T01:55:39.795Z,5.02
2023-01-01T01:58:10.173Z,4.99
2023-01-01T02:00:37.052Z,5.03
2023-01-01T02:03:08.101Z,4.96
2023-01-01T02:05:35.949Z,4.97
2023-01-01T02:08:04.903Z,4.98
2023-01-01T02:10:32.063Z,4.89
2023-01-01T02:12:59.218Z,4.78
2023-01-01T02:15:30.866Z,4.70
2023-01-01T02:18:10.769Z,4.61
2023-01-01T02:21:06.964Z,4.50
2023-01-01T02:24:23.228Z,4.38
2023-01-01T02:27:10.177Z,4.48
2023-01-01T02:29:45.658Z,4.53
2023-01-01T02:32:22.356Z,4.59
2023-01-01T02:34:58.917Z,4.61
2023-01-01T02:37:29.105Z,4.62
2023-01-01T02:39:58.742Z,4.38
2023-01-01T02:42:29.074Z,4.27
2023-01-01T02:44:59.256Z,4.23
2023-01-01T02:47:25.800Z,4.15
2023-01-01T02:50:06.129Z,4.24
2023-01-01T02:53:10.290Z,4.23
2023-01-01T02:56:06.110Z,4.22
2023-01-01T02:59:11.318Z,4.26
2023-01-01T03:01:49.349Z,4.29
2023-01-01T03:05:20.536Z,4.29
2023-01-01T03:08:21.516Z,4.33
2023-01-01T03:11:04.715Z,4.40
2023-01-01T03:13:50.048Z,4.38
2023-01-01T03:16:50.965Z,4.50
2023-01-01T03:19:24.068Z,4.48
2023-01-01T03:22:07.630Z,4.49
2023-01-01T03:24:44.227Z,4.40
2023-01-01T03:27:22.227Z,4.36
2023-01-01T03:29:51.979Z,4.34
2023-01-01T03:32:44.639Z,4.29
2023-01-01T03:35:13.858Z,4.15
2023-01-01T03:37:44.484Z,4.08
2023-01-01T03:40:14.293Z,4.08
2023-01-01T03:42:46.793Z,4.08
2023-01-01T03:45:30.073Z,4.12
2023-01-01T03:47:56.923Z,4.10
2023-01-01T03:50:35.981Z,4.16
2023-01-01T03:53:19.971Z,4.26
2023-01-01T03:55:53.557Z,4.40
2023-01-01T03:58:45.816Z,4.39
2023-01-01T04:01:32.584Z,4.38
2023-01-01T04:04:01.306Z,4.42
2023-01-01T04:06:28.398Z,4.46
2023-01-01T04:08:58.926Z,4.49
2023-01-01T04:11:49.386Z,4.45
2023-01-01T04:14:40.488Z,4.39
2023-01-01T04:17:09.333Z,4.44
2023-01-01T04:19:36.323Z,4.51
2023-01-01T04:22:04.012Z,4.53
2023-01-01T04:24:30.784Z,4.52
2023-01-01T04:26:57.381Z,4.58
2023-01-01T04:29:23.982Z,4.51
2023-01-01T04:31:50.578Z,4.52
2023-01-01T04:34:17.735Z,4.51
2023-01-01T04:36:44.748Z,4.49
2023-01-01T04:39:11.355Z,4.48
2023-01-01T04:41:37.934Z,4.38
2023-01-01T04:44:04.862Z,4.27
2023-01-01T04:46:31.411Z,4.18
2023-01-01T04:48:58.179Z,4.19
2023-01-01T04:51:24.827Z,4.17
2023-01-01T04:53:51.423Z,4.09
2023-01-01T04:56:20.609Z,4.11
2023-01-01T04:58:47.827Z,4.14
2023-01-01T05:01:20.816Z,4.15
2023-01-01T05:03:48.506Z,4.20
2023-01-01T05:06:16.166Z,4.23
2023-01-01T05:08:45.441Z,4.24
2023-01-01T05:11:14.971Z,4.13
2023-01-01T05:13:46.791Z,3.98
2023-01-01T05:16:16.004Z,3.94
2023-01-01T05:18:43.406Z,3.82
2023-01-01T05:21:22.052Z,3.80
2023-01-01T05:23:49.411Z,3.86
2023-01-01T05:26:21.295Z,3.88
2023-01-01T05:28:48.363Z,3.92
2023-01-01T05:31:17.605Z,3.91
2023-01-01T05:33:44.725Z,3.94
2023-01-01T05:36:16.445Z,3.95
2023-01-01T05:38:43.094Z,3.96
2023-01-01T05:41:12.127Z,3.95
2023-01-01T05:43:38.817Z,3.95
2023-01-01T05:46:11.290Z,4.00
2023-01-01T05:48:38.460Z,3.97
2023-01-01T05:51:07.982Z,4.06
2023-01-01T05:53:35.303Z,4.05
2023-01-01T05:56:02.788Z,4.05
2023-01-01T05:58:30.866Z,4.05
2023-01-01T06:01:05.187Z,4.08
2023-01-01T06:03:31.820Z,4.12
2023-01-01T06:06:02.980Z,4.13
2023-01-01T06:08:29.575Z,4.13
2023-01-01T06:11:04.313Z,4.12
2023-01-01T06:13:31.700Z,4.07
2023-01-01T06:16:00.268Z,3.99
2023-01-01T06:18:30.332Z,3.97
2023-01-01T06:21:07.218Z,3.90
2023-01-01T06:23:33.822Z,3.86
2023-01-01T06:26:14.567Z,3.90
2023-01-01T06:28:42.076Z,3.87
2023-01-01T06:31:11.211Z,3.94
2023-01-01T06:33:38.850Z,3.93
2023-01-01T06:36:08.835Z,3.97
2023-01-01T06:38:38.408Z,3.95
2023-01-01T06:41:11.428Z,3.97
2023-01-01T06:43:38.733Z,4.03
2023-01-01T06:46:06.757Z,4.01
2023-01-01T06:48:36.435Z,4.06
2023-01-01T06:51:12.231Z,4.10
2023-01-01T06:53:39.161Z,4.05
2023-01-01T06:56:06.450Z,4.01
2023-01-01T06:58:33.034Z,4.00
2023-01-01T07:01:17.406Z,3.95
2023-01-01T07:03:49.623Z,3.96
2023-01-01T07:06:16.219Z,3.94
2023-01-01T07:08:42.833Z,3.98
2023-01-01T07:11:09.393Z,4.02
2023-01-01T07:13:35.966Z,4.05
2023-01-01T07:16:05.507Z,4.09
2023-01-01T07:18:36.951Z,4.08
2023-01-01T07:21:04.974Z,4.13
2023-01-01T07:23:34.943Z,4.16
2023-01-01T07:26:01.996Z,4.21
2023-01-01T07:28:28.665Z,4.21
2023-01-01T07:30:55.289Z,4.22
2023-01-01T07:33:23.620Z,4.17
2023-01-01T07:35:50.668Z,4.19
2023-01-01T07:38:17.255Z,4.01
2023-01-01T07:40:43.869Z,4.12
2023-01-01T07:43:12.694Z,4.12
2023-01-01T07:45:39.827Z,4.16
2023-01-01T07:48:09.310Z,4.20
2023-01-01T07:50:38.244Z,4.25
2023-01-01T07:53:04.903Z,4.32
2023-01-01T07:55:32.334Z,4.32
2023-01-01T07:57:58.936Z,4.31
2023-01-01T08:00:25.695Z,4.30
2023-01-01T08:02:52.883Z,4.39
2023-01-01T08:05:26.089Z,4.41
2023-01-01T08:07:53.332Z,4.44
2023-01-01T08:10:20.819Z,4.46
2023-01-01T08:12:47.555Z,4.56
2023-01-01T08:15:15.556Z,4.58
2023-01-01T08:17:46.440Z,4.55
2023-01-01T08:20:13.706Z,4.52
2023-01-01T08:22:40.247Z,4.55
2023-01-01T08:25:07.422Z,4.63
2023-01-01T08:27:34.019Z,4.63
2023-01-01T08:30:00.617Z,4.67
2023-01-01T08:32:27.281Z,4.66
2023-01-01T08:34:53.886Z,4.63
2023-01-01T08:37:21.971Z,4.62
2023-01-01T08:39:52.590Z,4.69
2023-01-01T08:42:19.267Z,4.71
2023-01-01T08:44:46.181Z,4.71
2023-01-01T08:47:23.724Z,4.69
2023-01-01T08:49:50.999Z,4.71
2023-01-01T08:52:18.159Z,4.70
2023-01-01T08:54:44.769Z,4.71
2023-01-01T08:57:11.914Z,4.74
2023-01-01T08:59:38.613Z,4.68
2023-01-01T09:02:06.419Z,4.72
2023-01-01T09:04:34.045Z,4.71
2023-01-01T09:07:00.773Z,4.70
2023-01-01T09:09:31.385Z,4.65
2023-01-01T09:12:04.033Z,4.66
2023-01-01T09:14:31.226Z,4.71
2023-01-01T09:16:57.896Z,4.66
2023-01-01T09:19:24.558Z,4.56
2023-01-01T09:21:51.927Z,4.52
2023-01-01T09:24:18.495Z,4.50
2023-01-01T09:26:46.432Z,4.45
2023-01-01T09:29:13.061Z,4.51
2023-01-01T09:31:39.677Z,4.57
2023-01-01T09:34:06.204Z,4.59
2023-01-01T09:36:33.686Z,4.59
2023-01-01T09:39:01.272Z,4.60
2023-01-01T09:42:05.623Z,4.62
2023-01-01T09:45:23.498Z,4.61
2023-01-01T09:47:55.137Z,4.69
2023-01-01T09:50:33.951Z,4.72
2023-01-01T09:53:04.633Z,4.76
2023-01-01T09:55:53.983Z,4.85
2023-01-01T09:58:27.248Z,4.91
2023-01-01T10:00:59.384Z,4.95
2023-01-01T10:03:33.149Z,5.00
2023-01-01T10:06:30.503Z,5.08
2023-01-01T10:09:43.647Z,5.19
2023-01-01T10:12:34.741Z,5.28
2023-01-01T10:15:22.673Z,5.36
2023-01-01T10:17:57.414Z,5.42
2023-01-01T10:20:33.596Z,5.44
2023-01-01T10:23:07.591Z,5.55
2023-01-01T10:25:35.590Z,5.59
2023-01-01T10:28:07.033Z,5.65
2023-01-01T10:30:33.649Z,5.67
2023-01-01T10:33:00.364Z,5.72
2023-01-01T10:35:39.311Z,5.74
2023-01-01T10:38:06.288Z,5.77
2023-01-01T10:40:33.695Z,5.89
2023-01-01T10:43:02.664Z,5.95
2023-01-01T10:45:38.473Z,6.12
2023-01-01T10:48:23.038Z,6.17
2023-01-01T10:51:00.148Z,6.17
2023-01-01T10:53:50.468Z,6.23
2023-01-01T10:56:19.807Z,6.27
2023-01-01T10:58:58.630Z,6.35
2023-01-01T11:01:30.907Z,6.41
2023-01-01T11:04:34.717Z,6.54
2023-01-01T11:07:07.154Z,6.66
2023-01-01T11:09:38.622Z,6.73
2023-01-01T11:12:46.213Z,6.83
2023-01-01T11:15:06.294Z,6.85
2023-01-01T11:17:35.627Z,6.84
2023-01-01T11:20:04.733Z,6.87
2023-01-01T11:22:36.317Z,6.87
2023-01-01T11:25:04.966Z,6.89
2023-01-01T11:27:31.527Z,6.90
2023-01-01T11:30:21.974Z,6.92
2023-01-01T11:32:55.429Z,6.98
2023-01-01T11:35:25.556Z,6.98
2023-01-01T11:37:54.915Z,7.07
2023-01-01T11:40:27.384Z,7.17
2023-01-01T11:43:01.154Z,7.30
2023-01-01T11:45:40.282Z,7.35
2023-01-01T11:48:16.856Z,7.35
2023-01-01T11:50:54.301Z,7.35
2023-01-01T11:53:37.027Z,7.38
2023-01-01T11:56:22.639Z,7.40
2023-01-01T11:58:53.538Z,7.42
2023-01-01T12:01:40.398Z,7.46
2023-01-01T12:04:18.939Z,7.46
2023-01-01T12:07:00.055Z,7.47
2023-01-01T12:09:39.635Z,7.45
2023-01-01T12:12:13.589Z,7.48
2023-01-01T12:15:03.760Z,7.55
2023-01-01T12:17:53.990Z,7.57
2023-01-01T12:20:30.772Z,7.60
2023-01-01T12:22:59.625Z,7.53
2023-01-01T12:25:36.042Z,7.62
2023-01-01T12:29:00.988Z,7.70
2023-01-01T12:31:56.630Z,7.75
2023-01-01T12:35:00.344Z,7.82
2023-01-01T12:38:05.024Z,7.87
2023-01-01T12:40:54.693Z,7.84
2023-01-01T12:43:38.340Z,7.83
2023-01-01T12:46:43.082Z,7.87
2023-01-01T12:49:36.679Z,7.93
2023-01-01T12:52:33.307Z,7.93
2023-01-01T12:55:39.784Z,7.93
2023-01-01T12:58:30.724Z,7.99
2023-01-01T13:01:02.493Z,7.97
2023-01-01T13:03:34.271Z,8.09
2023-01-01T13:06:01.717Z,8.15
2023-01-01T13:08:28.299Z,8.19
2023-01-01T13:10:58.720Z,8.16
2023-01-01T13:13:26.300Z,8.12
2023-01-01T13:15:55.236Z,8.13
2023-01-01T13:18:32.602Z,8.15
2023-01-01T13:21:23.171Z,8.14
2023-01-01T13:23:50.958Z,8.08
2023-01-01T13:26:38.411Z,8.02
2023-01-01T13:29:30.586Z,8.01
2023-01-01T13:32:02.158Z,8.11
2023-01-01T13:34:38.101Z,8.19
2023-01-01T13:37:31.502Z,8.20
2023-01-01T13:40:48.716Z,8.11
2023-01-01T13:43:19.338Z,8.07
2023-01-01T13:49:05.572Z,8.09
2023-01-01T13:52:24.073Z,7.99
2023-01-01T13:55:55.375Z,8.01
2023-01-01T13:58:45.605Z,8.02
2023-01-01T14:10:33.060Z,8.07
2023-01-01T14:13:05.275Z,8.02
2023-01-01T14:15:37.306Z,7.96
2023-01-01T14:18:16.544Z,7.88
2023-01-01T14:20:51.442Z,7.78
2023-01-01T14:23:34.568Z,7.69
2023-01-01T14:26:13.811Z,7.64
2023-01-01T14:28:41.549Z,7.74
2023-01-01T14:31:22.073Z,7.74
2023-01-01T14:33:49.050Z,7.65
2023-01-01T14:36:30.981Z,7.66
2023-01-01T14:39:00.741Z,7.65
2023-01-01T14:41:41.561Z,7.66
2023-01-01T14:44:14.184Z,7.67
2023-01-01T14:46:45.423Z,7.60
2023-01-01T14:49:42.552Z,7.57
2023-01-01T14:52:17.114Z,7.54
2023-01-01T14:54:46.153Z,7.52
2023-01-01T14:57:20.528Z,7.48
2023-01-01T14:59:49.425Z,7.45
2023-01-01T15:02:30.608Z,7.40
2023-01-01T15:04:58.523Z,7.32
2023-01-01T15:07:31.630Z,7.26
2023-01-01T15:10:01.652Z,7.16
2023-01-01T15:12:29.556Z,7.08
2023-01-01T15:14:58.116Z,7.03
2023-01-01T15:17:26.734Z,6.95
2023-01-01T15:20:19.767Z,6.85
2023-01-01T15:22:46.277Z,6.79
2023-01-01T15:25:15.975Z,6.73
2023-01-01T15:27:44.259Z,6.67
2023-01-01T15:30:28.549Z,6.60
2023-01-01T15:32:56.066Z,6.60
2023-01-01T15:35:32.974Z,6.61
2023-01-01T15:38:03.699Z,6.59
2023-01-01T15:40:34.180Z,6.59
2023-01-01T15:43:22.316Z,6.56
2023-01-01T15:46:00.634Z,6.54
2023-01-01T15:48:37.611Z,6.52
2023-01-01T15:51:30.679Z,6.54
2023-01-01T15:54:01.509Z,6.51
2023-01-01T15:56:30.906Z,6.48
2023-01-01T15:59:09.171Z,6.43
2023-01-01T16:01:39.685Z,6.42
2023-01-01T16:04:27.959Z,6.40
2023-01-01T16:06:56.826Z,6.37
2023-01-01T16:09:23.556Z,6.36
2023-01-01T16:11:55.003Z,6.33
2023-01-01T16:14:22.450Z,6.27
2023-01-01T16:17:01.136Z,6.29
2023-01-01T16:19:30.617Z,6.26
2023-01-01T16:21:57.496Z,6.23
2023-01-01T16:24:24.698Z,6.21
2023-01-01T16:26:51.530Z,6.19
2023-01-01T16:29:18.214Z,6.16
2023-01-01T16:31:47.414Z,6.15
2023-01-01T16:34:14.925Z,6.10
2023-01-01T16:36:42.662Z,6.08
2023-01-01T16:39:09.306Z,6.05
2023-01-01T16:41:35.866Z,6.07
2023-01-01T16:44:02.585Z,6.05
2023-01-01T16:46:29.251Z,6.10
2023-01-01T16:48:55.826Z,6.07
2023-01-01T16:51:29.570Z,6.08
2023-01-01T16:53:57.439Z,6.07
2023-01-01T16:56:24.395Z,6.04
2023-01-01T16:58:55.247Z,6.05
2023-01-01T17:01:27.300Z,6.05
2023-01-01T17:03:54.188Z,6.01
2023-01-01T17:06:20.787Z,5.95
2023-01-01T17:08:47.398Z,5.96
2023-01-01T17:11:16.961Z,5.94
2023-01-01T17:13:45.867Z,5.89
2023-01-01T17:16:17.818Z,5.89
2023-01-01T17:21:40.106Z,5.90
2023-01-01T17:24:07.049Z,5.86
2023-01-01T17:26:33.656Z,5.87
2023-01-01T17:29:01.289Z,5.87
2023-01-01T17:31:29.023Z,5.86
2023-01-01T17:33:56.470Z,5.85
2023-01-01T17:36:23.193Z,5.82
2023-01-01T17:38:49.961Z,5.73
2023-01-01T17:41:17.533Z,5.71
2023-01-01T17:43:46.827Z,5.71
2023-01-01T17:46:33.890Z,5.73
2023-01-01T17:49:01.486Z,5.73
2023-01-01T17:51:28.359Z,5.72
2023-01-01T17:53:56.194Z,5.76
2023-01-01T17:56:24.153Z,5.75
2023-01-01T17:58:53.346Z,5.76
2023-01-01T18:01:30.773Z,5.73
2023-01-01T18:04:03.581Z,5.69
2023-01-01T18:06:30.706Z,5.66
2023-01-01T18:08:59.571Z,5.65
2023-01-01T18:11:30.404Z,5.63
2023-01-01T18:13:58.270Z,5.60
2023-01-01T18:16:25.171Z,5.58
2023-01-01T18:18:52.158Z,5.58
2023-01-01T18:21:23.798Z,5.59
2023-01-01T18:23:52.443Z,5.61
2023-01-01T18:26:19.804Z,5.63
2023-01-01T18:28:58.435Z,5.65
2023-01-01T18:31:26.591Z,5.65
2023-01-01T18:33:53.445Z,5.67
2023-01-01T18:36:24.512Z,5.66
2023-01-01T18:39:20.175Z,5.64
2023-01-01T18:42:09.641Z,5.66
2023-01-01T18:44:36.469Z,5.59
2023-01-01T18:47:20.990Z,5.52
2023-01-01T18:49:53.640Z,5.53
2023-01-01T18:52:28.194Z,5.48
2023-01-01T18:55:18.108Z,5.48
2023-01-01T18:57:52.937Z,5.50
2023-01-01T19:00:26.027Z,5.54
2023-01-01T19:02:58.183Z,5.50
2023-01-01T19:05:33.887Z,5.51
2023-01-01T19:08:18.398Z,5.51
2023-01-01T19:10:51.187Z,5.50
2023-01-01T19:13:42.782Z,5.46
2023-01-01T19:16:12.219Z,5.42
2023-01-01T19:18:41.446Z,5.39
2023-01-01T19:21:28.320Z,5.41
2023-01-01T19:24:00.775Z,5.34
2023-01-01T19:26:36.121Z,5.31
2023-01-01T19:29:13.193Z,5.20
2023-01-01T19:31:39.900Z,5.10
2023-01-01T19:34:06.541Z,5.02
2023-01-01T19:36:33.207Z,5.05
2023-01-01T19:38:59.789Z,5.02
2023-01-01T19:41:27.939Z,4.98
2023-01-01T19:43:54.573Z,4.89
2023-01-01T19:46:21.126Z,4.80
2023-01-01T19:48:49.169Z,4.77
2023-01-01T19:51:15.975Z,4.67
2023-01-01T19:53:42.549Z,4.66
2023-01-01T19:56:09.227Z,4.61
2023-01-01T19:58:35.842Z,4.59
2023-01-01T20:01:03.183Z,4.53
2023-01-01T20:06:16.364Z,4.50
2023-01-01T20:08:42.976Z,4.51
2023-01-01T20:11:12.373Z,4.47
2023-01-01T20:13:39.040Z,4.51
2023-01-01T20:16:06.292Z,4.47
2023-01-01T20:18:32.898Z,4.52
2023-01-01T20:21:23.685Z,4.51
2023-01-01T20:23:52.235Z,4.43
2023-01-01T20:26:20.945Z,4.44
2023-01-01T20:29:06.269Z,4.38
2023-01-01T20:31:32.991Z,4.41
2023-01-01T20:33:59.669Z,4.43
2023-01-01T20:36:45.097Z,4.42
2023-01-01T20:39:12.704Z,4.43
2023-01-01T20:41:39.303Z,4.40
2023-01-01T20:44:06.289Z,4.40
2023-01-01T20:46:33.044Z,4.39
2023-01-01T20:48:59.797Z,4.37
2023-01-01T20:51:26.364Z,4.34
2023-01-01T20:53:53.115Z,4.33
2023-01-01T20:56:19.641Z,4.30
2023-01-01T20:58:50.237Z,4.32
2023-01-01T21:01:19.799Z,4.33
2023-01-01T21:03:46.453Z,4.38
2023-01-01T21:06:15.983Z,4.28
2023-01-01T21:08:46.896Z,4.29
2023-01-01T21:11:16.686Z,4.27
2023-01-01T21:13:46.758Z,4.25
2023-01-01T21:16:17.788Z,4.25
2023-01-01T21:18:45.056Z,4.25
2023-01-01T21:21:20.823Z,4.25
2023-01-01T21:23:48.243Z,4.25
2023-01-01T21:26:25.042Z,4.18
2023-01-01T21:28:51.802Z,4.17
2023-01-01T21:31:18.405Z,4.19
2023-01-01T21:33:46.246Z,4.22
2023-01-01T21:36:18.203Z,4.16
2023-01-01T21:38:47.383Z,4.16
2023-01-01T21:41:23.875Z,4.13
2023-01-01T21:43:55.263Z,4.09
2023-01-01T21:46:46.043Z,4.06
2023-01-01T21:49:29.206Z,4.09
2023-01-01T21:51:58.273Z,4.09
2023-01-01T21:54:42.751Z,4.09
2023-01-01T21:57:18.790Z,4.06
2023-01-01T21:59:46.763Z,4.05
2023-01-01T22:02:35.053Z,4.04
2023-01-01T22:05:19.800Z,4.03
2023-01-01T22:08:02.627Z,4.09
2023-01-01T22:10:34.608Z,4.02
2023-01-01T22:13:01.824Z,4.00
2023-01-01T22:15:38.117Z,4.01
2023-01-01T22:18:28.307Z,3.98
2023-01-01T22:20:56.322Z,3.96
2023-01-01T22:23:32.134Z,3.97
2023-01-01T22:25:58.762Z,3.89
2023-01-01T22:28:27.930Z,3.90
2023-01-01T22:30:59.648Z,3.85
2023-01-01T22:33:35.908Z,3.80
2023-01-01T22:36:03.101Z,3.79
2023-01-01T22:38:33.304Z,3.77
2023-01-01T22:41:00.473Z,3.74
2023-01-01T22:43:31.602Z,3.71
2023-01-01T22:46:02.325Z,3.66
2023-01-01T22:48:37.594Z,3.66
2023-01-01T22:51:25.046Z,3.64
2023-01-01T22:53:51.633Z,3.58
2023-01-01T22:56:18.201Z,3.53
2023-01-01T22:58:44.770Z,3.40
2023-01-01T23:01:11.544Z,3.38
2023-01-01T23:03:38.335Z,3.50
2023-01-01T23:06:05.312Z,3.48
2023-01-01T23:08:31.944Z,3.40
2023-01-01T23:11:00.598Z,3.39
2023-01-01T23:13:45.999Z,3.33
2023-01-01T23:16:12.704Z,3.36
2023-01-01T23:18:39.341Z,3.39
2023-01-01T23:21:12.307Z,3.44
2023-01-01T23:23:39.515Z,3.54
2023-01-01T23:26:07.955Z,3.49
2023-01-01T23:28:35.391Z,3.51
2023-01-01T23:31:03.734Z,3.47
2023-01-01T23:33:31.766Z,3.39
2023-01-01T23:35:59.221Z,3.29
2023-01-01T23:38:27.123Z,3.30
2023-01-01T23:40:53.759Z,3.27
2023-01-01T23:43:20.345Z,3.14
2023-01-01T23:45:48.096Z,3.05
2023-01-01T23:48:15.796Z,2.94
2023-01-01T23:50:43.043Z,2.93
2023-01-01T23:53:09.730Z,2.92
2023-01-01T23:55:36.313Z,2.88
2023-01-01T23:58:02.923Z,2.85
